Time;durP1;ratioP1;P1;durP2;ratioP2;P2;SDS_P1;SDS_P2;PMS_P1;PMS_P2;Temp;Humidity;BMP_temperature;BMP_pressure;BME280_temperature;BME280_humidity;BME280_pressure;Samples;Min_cycle;Max_cycle;Signal;HPM_P1;HPM_P2
2024/01/18 00:00:06;;;;;;;;;0.00;0.00;;;;;18.40;41.17;98318.38;5117526;27;45455;-71
2024/01/18 00:02:32;;;;;;;;;0.00;0.00;;;;;18.30;40.68;98299.34;5117669;27;45486;-71
2024/01/18 00:04:57;;;;;;;;;0.00;0.00;;;;;18.45;40.97;98367.50;5117372;27;45463;-70
2024/01/18 00:07:25;;;;;;;;;1.00;0.00;;;;;18.43;41.24;98366.72;5117766;27;46418;-71
2024/01/18 00:09:50;;;;;;;;;0.00;0.00;;;;;18.38;41.23;98376.63;5115015;27;45225;-70
2024/01/18 00:12:16;;;;;;;;;0.00;0.00;;;;;18.38;41.13;98379.25;5117212;27;45481;-71
2024/01/18 00:14:44;;;;;;;;;0.00;0.00;;;;;18.29;41.03;98371.66;5117499;27;45171;-71
2024/01/18 00:17:10;;;;;;;;;0.00;0.00;;;;;18.44;40.97;98384.31;5117222;27;45391;-70
2024/01/18 00:19:36;;;;;;;;;0.00;0.00;;;;;18.32;41.14;98386.53;5117326;27;45403;-70
2024/01/18 00:22:02;;;;;;;;;0.00;0.00;;;;;18.48;41.15;98392.97;5117722;27;46087;-71
2024/01/18 00:24:28;;;;;;;;;0.00;0.00;;;;;18.48;40.79;98401.78;5118325;27;45580;-70
2024/01/18 00:26:53;;;;;;;;;0.00;0.00;;;;;18.54;40.95;98397.16;5118476;27;45242;-71
2024/01/18 00:29:19;;;;;;;;;0.00;0.00;;;;;18.49;40.52;98407.94;5118338;27;45498;-71
2024/01/18 00:31:44;;;;;;;;;0.00;0.00;;;;;18.52;40.70;98406.94;5118166;27;45617;-70
2024/01/18 00:34:10;;;;;;;;;0.67;0.00;;;;;18.45;40.64;98401.03;5116563;27;45537;-71
2024/01/18 00:36:36;;;;;;;;;0.00;0.00;;;;;18.46;40.46;98403.63;5118127;27;45498;-71
2024/01/18 00:39:08;;;;;;;;;0.00;0.00;;;;;18.45;40.96;98411.59;5118829;27;45434;-71
2024/01/18 00:41:34;;;;;;;;;0.00;0.00;;;;;18.45;40.58;98404.53;5117938;27;45357;-71
2024/01/18 00:43:59;;;;;;;;;0.00;0.00;;;;;18.46;40.64;98416.84;5118267;27;45221;-71
2024/01/18 00:46:25;;;;;;;;;0.00;0.00;;;;;18.44;40.92;98409.88;5118228;27;45361;-71
2024/01/18 00:48:51;;;;;;;;;0.00;0.00;;;;;18.20;40.80;98375.47;5118302;27;45566;-71
2024/01/18 00:51:16;;;;;;;;;0.00;0.00;;;;;18.43;40.89;98416.09;5117825;27;45513;-71
2024/01/18 00:53:42;;;;;;;;;0.00;0.00;;;;;18.46;40.66;98408.91;5118044;27;45344;-70
2024/01/18 00:56:11;;;;;;;;;0.00;0.00;;;;;18.37;40.82;98395.16;5121034;27;45495;-71
2024/01/18 00:58:37;;;;;;;;;0.00;0.00;;;;;18.46;40.89;98408.91;5121680;27;45304;-71
2024/01/18 01:01:03;;;;;;;;;0.00;0.00;;;;;18.38;40.61;98391.59;5121369;27;46159;-71
2024/01/18 01:03:29;;;;;;;;;0.00;0.00;;;;;18.49;40.58;98400.00;5119840;27;45498;-71
2024/01/18 01:05:54;;;;;;;;;0.33;0.00;;;;;18.43;40.97;98416.94;5121381;27;45592;-71
2024/01/18 01:08:20;;;;;;;;;0.33;0.00;;;;;18.45;40.72;98412.47;5121585;27;45510;-71
2024/01/18 01:10:45;;;;;;;;;0.00;0.00;;;;;18.34;40.65;98397.91;5121111;27;46095;-70
2024/01/18 01:13:11;;;;;;;;;0.00;0.00;;;;;18.46;40.77;98432.72;5121300;27;45323;-70
2024/01/18 01:15:36;;;;;;;;;0.00;0.00;;;;;18.42;40.52;98428.44;5121391;27;45480;-71
2024/01/18 01:18:02;;;;;;;;;0.00;0.00;;;;;18.30;40.25;98405.06;5120470;27;45226;-71
2024/01/18 01:20:28;;;;;;;;;0.00;0.00;;;;;18.46;40.77;98432.72;5121034;27;45268;-70
2024/01/18 01:22:54;;;;;;;;;0.00;0.00;;;;;18.44;40.74;98449.53;5121000;27;45626;-70
2024/01/18 01:25:22;;;;;;;;;0.00;0.00;;;;;18.40;40.49;98446.16;5121130;27;45497;-71
2024/01/18 01:27:48;;;;;;;;;0.00;0.00;;;;;18.29;40.20;98425.38;5121163;27;45317;-70
2024/01/18 01:30:13;;;;;;;;;1.00;0.00;;;;;18.44;40.23;98455.69;5120827;27;45340;-71
2024/01/18 01:32:39;;;;;;;;;0.00;0.00;;;;;18.45;40.13;98460.03;5121023;27;46179;-70
2024/01/18 01:35:05;;;;;;;;;0.00;0.00;;;;;18.39;40.32;98456.78;5121398;27;45417;-70
2024/01/18 01:37:30;;;;;;;;;0.00;0.00;;;;;18.42;40.48;98462.81;5121258;27;46099;-71
2024/01/18 01:39:56;;;;;;;;;0.00;0.00;;;;;18.41;40.42;98463.72;5120694;27;45389;-71
2024/01/18 01:42:22;;;;;;;;;0.00;0.00;;;;;18.35;40.37;98463.94;5120742;27;45328;-71
2024/01/18 01:44:47;;;;;;;;;0.00;0.00;;;;;18.28;40.28;98443.91;5120988;27;45509;-71
2024/01/18 01:47:13;;;;;;;;;0.00;0.00;;;;;18.37;40.16;98474.47;5120956;27;45324;-71
2024/01/18 01:49:38;;;;;;;;;0.00;0.00;;;;;18.32;40.12;98460.53;5120984;27;45346;-71
2024/01/18 01:52:04;;;;;;;;;0.00;0.00;;;;;18.24;40.29;98453.75;5120780;27;45314;-71
2024/01/18 01:54:32;;;;;;;;;0.33;0.00;;;;;18.27;40.49;98466.84;5120773;27;45387;-71
2024/01/18 01:57:00;;;;;;;;;0.00;0.00;;;;;18.35;40.48;98466.56;5120538;27;45433;-71
2024/01/18 01:59:26;;;;;;;;;0.00;0.00;;;;;18.38;40.37;98481.47;5120279;27;45446;-71
2024/01/18 02:01:53;;;;;;;;;0.00;0.00;;;;;18.32;40.46;98477.25;5120303;27;45190;-71
2024/01/18 02:04:19;;;;;;;;;0.00;0.00;;;;;18.12;40.55;98448.00;5120638;27;45331;-71
2024/01/18 02:06:47;;;;;;;;;1.00;0.00;;;;;18.26;40.57;98483.63;5119573;27;45269;-71
2024/01/18 02:09:13;;;;;;;;;0.00;0.00;;;;;18.02;40.69;98426.31;5119893;27;45977;-70
2024/01/18 02:11:38;;;;;;;;;0.00;0.00;;;;;18.16;40.85;98460.19;5120460;27;45582;-71
2024/01/18 02:14:04;;;;;;;;;0.00;0.00;;;;;18.16;41.02;98476.06;5120524;27;45278;-70
2024/01/18 02:16:30;;;;;;;;;0.00;0.00;;;;;18.14;41.13;98468.16;5120403;27;45532;-71
2024/01/18 02:18:56;;;;;;;;;0.00;0.00;;;;;18.05;40.85;98460.56;5119933;27;45478;-70
2024/01/18 02:21:25;;;;;;;;;1.67;0.00;;;;;18.17;41.12;98472.50;5119967;27;45588;-70
2024/01/18 02:23:58;;;;;;;;;0.67;0.00;;;;;18.05;41.19;98472.00;5120053;27;45339;-71
2024/01/18 02:26:24;;;;;;;;;0.00;0.00;;;;;18.04;41.12;98488.75;5120300;27;45401;-71
2024/01/18 02:28:57;;;;;;;;;0.00;0.00;;;;;18.05;41.17;98506.34;5119843;27;45417;-71
2024/01/18 02:31:23;;;;;;;;;0.00;0.00;;;;;18.10;41.08;98498.25;5120006;27;45418;-71
2024/01/18 02:33:49;;;;;;;;;1.00;0.00;;;;;17.97;41.20;98476.69;5120062;27;45350;-70
2024/01/18 02:36:15;;;;;;;;;0.00;0.00;;;;;18.06;41.39;98486.06;5120117;27;45377;-71
2024/01/18 02:38:42;;;;;;;;;0.00;0.00;;;;;18.04;41.22;98522.25;5119924;27;45328;-70
2024/01/18 02:41:08;;;;;;;;;2.00;1.00;;;;;17.93;41.39;98490.06;5119944;27;45484;-70
2024/01/18 02:43:34;;;;;;;;;0.00;0.00;;;;;17.94;41.26;98492.63;5119749;27;45498;-70
2024/01/18 02:45:59;;;;;;;;;0.00;0.00;;;;;17.86;41.28;98492.88;5120010;27;45497;-71
2024/01/18 02:48:25;;;;;;;;;0.33;0.00;;;;;17.93;41.21;98493.53;5119657;27;45336;-71
2024/01/18 02:50:51;;;;;;;;;2.00;1.67;;;;;17.91;41.28;98492.72;5119483;27;45669;-70
2024/01/18 02:53:20;;;;;;;;;0.00;0.00;;;;;17.77;41.01;98492.28;5119781;27;45378;-70
2024/01/18 02:55:45;;;;;;;;;1.00;1.00;;;;;17.72;40.97;98465.16;5120015;27;45492;-71
2024/01/18 02:58:11;;;;;;;;;2.00;1.00;;;;;17.75;41.10;98488.84;5119674;27;45603;-71
2024/01/18 03:00:38;;;;;;;;;0.67;0.67;;;;;17.86;41.19;98492.88;5119494;27;45421;-71
2024/01/18 03:03:04;;;;;;;;;0.00;0.00;;;;;17.79;40.99;98478.13;5119649;27;45238;-71
2024/01/18 03:05:31;;;;;;;;;0.00;0.00;;;;;17.77;41.02;98492.28;5119772;27;45530;-71
2024/01/18 03:07:57;;;;;;;;;0.00;0.00;;;;;17.73;41.31;98483.59;5119325;27;46125;-71
2024/01/18 03:10:22;;;;;;;;;0.00;0.00;;;;;17.70;41.41;98475.75;5119300;27;45404;-70
2024/01/18 03:12:48;;;;;;;;;0.00;0.00;;;;;17.69;41.41;98496.03;5119580;27;45587;-71
2024/01/18 03:15:14;;;;;;;;;0.00;0.00;;;;;17.60;41.54;98477.81;5118264;27;45449;-71
2024/01/18 03:17:39;;;;;;;;;0.33;0.00;;;;;17.63;41.59;98476.88;5119372;27;45305;-71
2024/01/18 03:20:07;;;;;;;;;0.00;0.00;;;;;17.58;41.57;98468.25;5118970;27;45495;-70
2024/01/18 03:22:39;;;;;;;;;1.00;0.00;;;;;17.45;41.47;98457.22;5119299;27;45294;-71
2024/01/18 03:25:05;;;;;;;;;1.00;0.00;;;;;17.62;41.43;98480.44;5119442;27;45320;-71
2024/01/18 03:27:30;;;;;;;;;0.00;0.00;;;;;17.60;41.40;98477.81;5118930;27;45943;-71
2024/01/18 03:29:56;;;;;;;;;0.00;0.00;;;;;17.59;41.33;98481.41;5118944;27;45447;-71
2024/01/18 03:32:22;;;;;;;;;0.00;0.00;;;;;17.59;41.26;98501.66;5119115;27;45338;-70
2024/01/18 03:34:48;;;;;;;;;1.00;0.00;;;;;17.63;41.16;98501.50;5119148;27;45493;-71
2024/01/18 03:37:14;;;;;;;;;0.00;0.00;;;;;17.63;41.34;98506.78;5119071;27;45334;-70
2024/01/18 03:39:39;;;;;;;;;0.00;0.00;;;;;17.66;41.30;98519.03;5119163;27;45328;-70
2024/01/18 03:42:05;;;;;;;;;0.00;0.00;;;;;17.67;41.27;98511.06;5118754;27;45389;-70
2024/01/18 03:44:34;;;;;;;;;0.00;0.00;;;;;17.66;41.10;98500.53;5119210;27;45469;-70
2024/01/18 03:47:00;;;;;;;;;1.00;0.00;;;;;17.72;41.04;98512.69;5118795;27;45321;-71
2024/01/18 03:49:25;;;;;;;;;0.00;0.00;;;;;17.72;41.08;98512.69;5118881;27;45435;-70
2024/01/18 03:51:51;;;;;;;;;0.67;0.00;;;;;17.70;41.08;98524.16;5118572;27;45518;-70
2024/01/18 03:54:18;;;;;;;;;0.00;0.00;;;;;17.76;41.03;98533.66;5117725;27;45524;-70
2024/01/18 03:56:43;;;;;;;;;0.00;0.00;;;;;17.77;40.94;98519.56;5118932;27;45314;-71
2024/01/18 03:59:12;;;;;;;;;0.00;0.00;;;;;17.77;41.06;98529.25;5118624;27;45317;-70
2024/01/18 04:01:39;;;;;;;;;0.00;0.00;;;;;17.80;40.87;98526.50;5118813;27;45344;-71
2024/01/18 04:04:04;;;;;;;;;0.00;0.00;;;;;17.75;40.90;98528.44;5118790;27;45293;-71
2024/01/18 04:06:30;;;;;;;;;0.00;0.00;;;;;17.72;40.92;98554.94;5118246;27;46140;-70
2024/01/18 04:08:55;;;;;;;;;0.00;0.00;;;;;17.58;40.73;98519.25;5118322;27;45469;-70
2024/01/18 04:11:21;;;;;;;;;0.00;0.00;;;;;17.72;40.63;98542.59;5118515;27;45438;-70
2024/01/18 04:13:47;;;;;;;;;0.00;0.00;;;;;17.72;40.57;98539.94;5119077;27;45377;-71
2024/01/18 04:16:13;;;;;;;;;1.00;0.00;;;;;17.52;40.46;98527.38;5118432;27;46036;-71
2024/01/18 04:18:39;;;;;;;;;0.00;0.00;;;;;17.61;40.69;98553.50;5117981;27;45493;-71
2024/01/18 04:21:04;;;;;;;;;0.00;0.00;;;;;17.47;40.65;98529.31;5118260;27;45509;-70
2024/01/18 04:23:30;;;;;;;;;0.00;0.00;;;;;17.59;40.58;98552.69;5117190;27;45505;-70
2024/01/18 04:25:56;;;;;;;;;0.00;0.00;;;;;17.58;40.67;98544.78;5117948;27;45524;-70
2024/01/18 04:28:22;;;;;;;;;0.00;0.00;;;;;17.61;40.62;98550.84;5118344;27;45461;-71
2024/01/18 04:30:48;;;;;;;;;1.00;0.00;;;;;17.53;40.66;98558.16;5121578;27;45620;-71
2024/01/18 04:33:14;;;;;;;;;0.00;0.00;;;;;17.49;40.67;98556.50;5121130;27;45504;-70
2024/01/18 04:35:39;;;;;;;;;0.00;0.00;;;;;17.47;40.72;98556.56;5120515;27;45608;-71
2024/01/18 04:38:08;;;;;;;;;0.00;0.00;;;;;17.48;40.54;98557.41;5121756;27;45359;-71
2024/01/18 04:40:33;;;;;;;;;1.00;0.00;;;;;17.26;40.95;98522.88;5121777;27;45444;-70
2024/01/18 04:42:59;;;;;;;;;0.00;0.00;;;;;17.50;40.65;98556.44;5121881;27;45285;-70
2024/01/18 04:45:25;;;;;;;;;0.00;0.00;;;;;17.45;40.90;98554.88;5121554;27;45401;-70
2024/01/18 04:47:54;;;;;;;;;0.00;0.00;;;;;17.40;40.76;98552.34;5121883;27;45338;-71
2024/01/18 04:50:26;;;;;;;;;0.00;0.00;;;;;17.44;40.90;98564.53;5121713;27;45282;-71
2024/01/18 04:52:52;;;;;;;;;0.00;0.00;;;;;17.38;40.82;98570.00;5121635;27;45463;-71
2024/01/18 04:55:18;;;;;;;;;0.00;0.00;;;;;17.36;40.76;98568.34;5121428;27;46075;-71
2024/01/18 04:57:44;;;;;;;;;1.33;0.00;;;;;17.35;40.79;98559.56;5121301;27;45497;-71
2024/01/18 05:00:10;;;;;;;;;0.00;0.00;;;;;17.36;40.94;98560.41;5121250;27;45332;-70
2024/01/18 05:02:37;;;;;;;;;0.00;0.00;;;;;17.36;40.69;98560.41;5120399;27;45342;-71
2024/01/18 05:05:03;;;;;;;;;0.67;0.00;;;;;17.26;40.99;98551.91;5121253;27;46120;-71
2024/01/18 05:07:28;;;;;;;;;0.00;0.00;;;;;17.20;41.11;98560.84;5121094;27;45466;-71
2024/01/18 05:09:54;;;;;;;;;0.00;0.00;;;;;17.06;41.17;98545.41;5121278;27;45408;-71
2024/01/18 05:12:20;;;;;;;;;0.00;0.00;;;;;17.14;41.14;98570.72;5121661;27;45509;-70
2024/01/18 05:14:45;;;;;;;;;0.00;0.00;;;;;17.14;41.15;98574.22;5121380;27;45931;-70
2024/01/18 05:17:12;;;;;;;;;1.00;1.00;;;;;17.05;41.36;98548.97;5121189;27;45352;-70
2024/01/18 05:19:39;;;;;;;;;0.00;0.00;;;;;17.06;41.54;98565.66;5121281;27;45489;-70
2024/01/18 05:22:04;;;;;;;;;0.00;0.00;;;;;17.03;41.49;98571.91;5121237;27;45358;-71
2024/01/18 05:24:30;;;;;;;;;0.00;0.00;;;;;16.82;41.46;98543.47;5120909;27;45362;-70
2024/01/18 05:26:56;;;;;;;;;0.00;0.00;;;;;16.96;41.72;98570.34;5120799;27;45495;-71
2024/01/18 05:29:22;;;;;;;;;0.00;0.00;;;;;16.97;41.78;98573.81;5120787;27;45440;-71
2024/01/18 05:31:47;;;;;;;;;0.00;0.00;;;;;16.91;41.50;98572.25;5121294;27;45429;-71
2024/01/18 05:34:13;;;;;;;;;1.00;0.00;;;;;16.85;41.60;98573.28;5120680;27;46011;-70
2024/01/18 05:36:39;;;;;;;;;0.00;0.00;;;;;16.92;41.63;98581.00;5120783;27;45242;-71
2024/01/18 05:39:05;;;;;;;;;0.00;0.00;;;;;16.66;41.32;98529.81;5120830;27;45392;-70
2024/01/18 05:41:30;;;;;;;;;0.00;0.00;;;;;16.79;41.42;98567.25;5119806;27;45453;-71
2024/01/18 05:43:56;;;;;;;;;0.67;0.00;;;;;16.82;41.69;98578.63;5120663;27;45304;-71
2024/01/18 05:46:22;;;;;;;;;0.67;0.00;;;;;16.87;41.41;98587.28;5121020;27;45317;-71
2024/01/18 05:48:49;;;;;;;;;0.00;0.00;;;;;16.87;41.42;98592.56;5121187;27;45435;-71
2024/01/18 05:51:14;;;;;;;;;0.00;0.00;;;;;16.86;41.64;98582.03;5119223;27;45686;-70
2024/01/18 05:53:40;;;;;;;;;0.00;0.00;;;;;16.78;41.38;98581.34;5120402;27;45485;-70
2024/01/18 05:56:06;;;;;;;;;0.67;0.00;;;;;16.75;40.92;98571.75;5120501;27;45300;-71
2024/01/18 05:58:32;;;;;;;;;0.00;0.00;;;;;16.79;41.07;98585.69;5120647;27;45456;-71
2024/01/18 06:00:58;;;;;;;;;0.00;0.00;;;;;16.70;40.79;98584.19;5120632;27;45307;-71
2024/01/18 06:03:23;;;;;;;;;0.00;0.00;;;;;16.80;41.19;98587.44;5120236;27;46137;-71
2024/01/18 06:05:49;;;;;;;;;0.00;0.00;;;;;16.74;41.09;98591.09;5120332;27;45317;-70
2024/01/18 06:08:16;;;;;;;;;0.00;0.00;;;;;16.75;40.69;98591.97;5120455;27;45369;-71
2024/01/18 06:10:42;;;;;;;;;0.00;0.00;;;;;16.74;40.53;98592.88;5119061;27;45460;-70
2024/01/18 06:13:09;;;;;;;;;0.67;0.00;;;;;16.71;40.64;98596.44;5119732;27;46100;-71
2024/01/18 06:15:35;;;;;;;;;0.00;0.00;;;;;16.69;40.62;98612.34;5120004;27;45525;-70
2024/01/18 06:18:04;;;;;;;;;0.00;0.00;;;;;16.68;41.11;98617.63;5120005;27;45357;-71
2024/01/18 06:20:30;;;;;;;;;0.00;0.00;;;;;16.52;40.95;98603.13;5120147;27;45410;-70
2024/01/18 06:22:58;;;;;;;;;0.00;0.00;;;;;16.67;40.81;98629.97;5119995;27;46045;-70
2024/01/18 06:25:24;;;;;;;;;1.00;0.00;;;;;16.58;40.95;98622.28;5120521;27;45301;-71
2024/01/18 06:27:50;;;;;;;;;0.67;0.00;;;;;16.64;40.95;98642.34;5120443;27;45485;-70
2024/01/18 06:30:18;;;;;;;;;0.00;0.00;;;;;16.65;41.04;98634.41;5120237;27;45424;-70
2024/01/18 06:32:44;;;;;;;;;0.00;0.00;;;;;16.68;41.02;98633.47;5119832;27;45463;-70
2024/01/18 06:35:10;;;;;;;;;0.00;0.00;;;;;16.68;41.21;98644.00;5112863;27;45337;-69
2024/01/18 06:37:36;;;;;;;;;0.00;0.00;;;;;16.68;41.40;98652.78;5099357;27;45483;-71
2024/01/18 06:40:02;;;;;;;;;2.00;0.00;;;;;16.63;41.49;98646.75;5099259;27;45488;-70
2024/01/18 06:42:28;;;;;;;;;1.00;1.00;;;;;16.50;41.34;98630.38;5098687;27;45920;-69
2024/01/18 06:44:54;;;;;;;;;9.50;9.50;;;;;16.62;41.52;98650.28;5099169;27;45230;-71
2024/01/18 06:47:20;;;;;;;;;0.00;0.00;;;;;16.55;41.48;98634.66;5098869;27;45495;-70
2024/01/18 06:49:45;;;;;;;;;0.00;0.00;;;;;16.59;41.67;98650.38;5099026;27;45470;-70
2024/01/18 06:52:11;;;;;;;;;1.00;1.00;;;;;16.64;41.65;98659.03;5098214;27;45900;-70
2024/01/18 06:54:37;;;;;;;;;1.67;1.67;;;;;16.66;41.50;98651.94;5098669;27;45371;-70
2024/01/18 06:57:03;;;;;;;;;0.67;0.67;;;;;16.56;41.69;98624.09;5106439;27;45511;-70
2024/01/18 06:59:29;;;;;;;;;1.00;1.00;;;;;16.67;41.65;98658.06;5118154;27;45557;-70
2024/01/18 07:01:55;;;;;;;;;1.33;1.00;;;;;16.69;41.55;98658.91;5118314;27;46082;-70
2024/01/18 07:04:21;;;;;;;;;2.00;0.00;;;;;16.68;41.73;98657.19;5118583;27;45576;-71
2024/01/18 07:06:47;;;;;;;;;0.00;0.00;;;;;16.65;41.72;98654.59;5118744;27;45625;-71
2024/01/18 07:09:12;;;;;;;;;0.00;0.00;;;;;16.48;41.50;98641.88;5118699;27;45357;-70
2024/01/18 07:11:38;;;;;;;;;1.00;0.00;;;;;16.67;41.46;98661.59;5118591;27;45263;-70
2024/01/18 07:14:04;;;;;;;;;0.00;0.00;;;;;16.65;41.52;98659.88;5118776;27;45303;-69
2024/01/18 07:16:30;;;;;;;;;0.00;0.00;;;;;16.62;41.62;98663.47;5118421;27;45201;-70
2024/01/18 07:18:55;;;;;;;;;3.00;2.00;;;;;16.55;41.87;98653.97;5118952;27;45328;-69
2024/01/18 07:21:21;;;;;;;;;1.00;0.00;;;;;16.64;41.49;98653.75;5118128;27;46093;-71
2024/01/18 07:23:46;;;;;;;;;1.00;0.00;;;;;16.66;41.50;98664.25;5118143;27;45358;-70
2024/01/18 07:26:12;;;;;;;;;0.00;0.00;;;;;16.70;41.62;98669.41;5115529;27;45782;-70
2024/01/18 07:28:38;;;;;;;;;0.00;0.00;;;;;16.71;41.55;98670.28;5118608;27;45793;-70
2024/01/18 07:31:04;;;;;;;;;0.00;0.00;;;;;16.56;41.50;98636.41;5118147;27;45567;-70
2024/01/18 07:33:29;;;;;;;;;0.00;0.00;;;;;16.76;41.42;98671.03;5117754;27;45290;-71
2024/01/18 07:35:56;;;;;;;;;2.00;1.00;;;;;16.70;41.58;98668.56;5118282;27;45395;-71
2024/01/18 07:38:22;;;;;;;;;0.00;0.00;;;;;16.75;41.65;98677.22;5118355;27;45362;-71
2024/01/18 07:40:48;;;;;;;;;0.00;0.00;;;;;16.79;41.60;98676.25;5117825;27;46138;-71
2024/01/18 07:43:14;;;;;;;;;0.00;0.00;;;;;16.81;41.76;98677.09;5118040;27;45503;-70
2024/01/18 07:45:40;;;;;;;;;0.33;0.00;;;;;16.81;41.74;98674.47;5118206;27;45257;-71
2024/01/18 07:48:06;;;;;;;;;0.00;0.00;;;;;16.81;41.62;98685.00;5118186;27;45438;-71
2024/01/18 07:50:32;;;;;;;;;1.00;0.00;;;;;16.72;41.58;98661.47;5115085;27;45743;-71
2024/01/18 07:52:58;;;;;;;;;0.00;0.00;;;;;16.92;41.51;98681.22;5117851;27;45507;-71
2024/01/18 07:55:25;;;;;;;;;0.00;0.00;;;;;16.55;41.40;98611.78;5118181;27;45861;-70
2024/01/18 07:57:51;;;;;;;;;0.00;0.00;;;;;16.93;41.56;98681.22;5118024;27;45577;-71
2024/01/18 08:00:17;;;;;;;;;0.00;0.00;;;;;17.02;41.61;98691.50;5117400;27;45985;-71
2024/01/18 08:02:43;;;;;;;;;0.33;0.33;;;;;17.07;41.56;98692.25;5117443;27;45517;-71
2024/01/18 08:05:09;;;;;;;;;0.00;0.00;;;;;17.03;41.53;98687.97;5116752;27;45565;-70
2024/01/18 08:07:35;;;;;;;;;1.00;1.00;;;;;17.12;41.32;98699.19;5117827;27;45244;-71
2024/01/18 08:10:01;;;;;;;;;2.67;2.33;;;;;17.08;41.52;98693.13;5117537;27;45555;-71
2024/01/18 08:12:27;;;;;;;;;0.00;0.00;;;;;17.01;41.35;98673.06;5117747;27;45490;-70
2024/01/18 08:14:53;;;;;;;;;0.33;0.33;;;;;17.17;41.45;98698.16;5117578;27;45299;-71
2024/01/18 08:17:18;;;;;;;;;0.00;0.00;;;;;17.20;41.37;98691.94;5117730;27;45356;-71
2024/01/18 08:19:44;;;;;;;;;2.00;2.00;;;;;17.27;41.21;98706.69;5117283;27;45974;-71
2024/01/18 08:22:11;;;;;;;;;1.00;1.00;;;;;17.29;41.36;98708.38;5117136;27;45457;-71
2024/01/18 08:24:38;;;;;;;;;0.00;0.00;;;;;17.28;41.06;98719.81;5117106;27;45319;-71
2024/01/18 08:27:03;;;;;;;;;0.00;0.00;;;;;17.28;41.19;98719.81;5117450;27;45436;-70
2024/01/18 08:29:29;;;;;;;;;0.00;0.00;;;;;17.40;41.23;98717.78;5118081;27;46119;-71
2024/01/18 08:31:55;;;;;;;;;0.00;0.00;;;;;17.47;40.97;98708.81;5116613;27;45494;-70
2024/01/18 08:34:21;;;;;;;;;0.00;0.00;;;;;17.53;40.81;98736.78;5117435;27;45465;-69
2024/01/18 08:36:47;;;;;;;;;1.00;1.00;;;;;17.49;40.61;98702.56;5117399;27;45471;-70
2024/01/18 08:39:12;;;;;;;;;0.00;0.00;;;;;17.70;40.57;98724.84;5116917;27;45508;-70
2024/01/18 08:41:38;;;;;;;;;0.67;0.00;;;;;17.78;40.68;98721.97;5116865;27;45410;-70
2024/01/18 08:44:05;;;;;;;;;0.00;0.00;;;;;17.85;40.41;98739.44;5117357;27;45508;-70
2024/01/18 08:46:30;;;;;;;;;0.00;0.00;;;;;17.81;40.27;98723.69;5117700;27;45594;-69
2024/01/18 08:48:56;;;;;;;;;0.33;0.00;;;;;17.83;40.13;98735.09;5117183;27;45950;-70
2024/01/18 08:51:22;;;;;;;;;1.00;1.00;;;;;17.75;40.29;98702.75;5116889;27;45292;-71
2024/01/18 08:53:47;;;;;;;;;1.00;0.33;;;;;17.96;40.14;98738.25;5117345;27;45156;-71
2024/01/18 08:56:13;;;;;;;;;1.00;0.67;;;;;17.95;40.01;98737.41;5117503;27;45316;-70
2024/01/18 08:58:39;;;;;;;;;0.00;0.00;;;;;18.03;39.94;98729.25;5117137;27;45475;-68
2024/01/18 09:01:05;;;;;;;;;1.00;0.00;;;;;18.16;39.88;98746.44;5116702;27;45281;-70
2024/01/18 09:03:30;;;;;;;;;0.00;0.00;;;;;18.32;39.84;98754.78;5117568;27;45223;-69
2024/01/18 09:05:56;;;;;;;;;0.00;0.00;;;;;18.38;39.35;98751.09;5117228;27;45514;-73
2024/01/18 09:08:22;;;;;;;;;0.00;0.00;;;;;18.43;39.18;98735.97;5116788;27;45888;-68
2024/01/18 09:10:49;;;;;;;;;0.33;0.00;;;;;18.46;38.83;98726.16;5116974;27;45270;-70
2024/01/18 09:13:15;;;;;;;;;11.00;11.00;;;;;18.81;38.98;98753.28;5116398;27;45568;-70
2024/01/18 09:15:41;;;;;;;;;5.67;3.00;;;;;18.96;39.04;98749.31;5117753;27;45417;-69
2024/01/18 09:18:07;;;;;;;;;0.00;0.00;;;;;19.00;38.57;98750.94;5119774;27;45495;-69
2024/01/18 09:20:33;;;;;;;;;1.00;0.00;;;;;19.10;38.02;98740.91;5120090;27;45922;-69
2024/01/18 09:22:59;;;;;;;;;0.00;0.00;;;;;19.36;38.18;98761.19;5120778;27;45495;-69
2024/01/18 09:25:25;;;;;;;;;1.00;0.00;;;;;19.41;37.66;98756.56;5119726;27;45354;-69
2024/01/18 09:27:51;;;;;;;;;0.33;0.33;;;;;19.54;37.80;98766.78;5120082;27;45453;-70
2024/01/18 09:30:17;;;;;;;;;1.00;0.00;;;;;19.64;37.95;98768.16;5119861;27;45560;-70
2024/01/18 09:32:42;;;;;;;;;0.00;0.00;;;;;20.10;37.16;98750.63;5120091;27;45465;-70
2024/01/18 09:35:08;;;;;;;;;0.00;0.00;;;;;21.35;35.98;98766.91;5116595;27;45415;-69
2024/01/18 09:37:35;;;;;;;;;0.67;0.67;;;;;22.52;34.86;98753.72;5120248;27;46027;-69
2024/01/18 09:40:01;;;;;;;;;0.00;0.00;;;;;23.30;32.62;98765.03;5119680;27;45604;-68
2024/01/18 09:42:32;;;;;;;;;0.00;0.00;;;;;23.78;32.35;98761.66;5120039;27;45296;-69
2024/01/18 09:45:07;;;;;;;;;0.33;0.00;;;;;23.89;31.90;98705.09;5119887;27;45506;-70
2024/01/18 09:47:33;;;;;;;;;0.00;0.00;;;;;23.71;31.37;98714.03;5119880;27;46545;-70
2024/01/18 09:49:59;;;;;;;;;0.00;0.00;;;;;23.48;31.78;98773.91;5119677;27;45710;-71
2024/01/18 09:52:25;;;;;;;;;1.00;0.00;;;;;23.00;32.92;98782.44;5120040;27;45531;-71
2024/01/18 09:54:50;;;;;;;;;0.00;0.00;;;;;22.91;32.90;98787.34;5120095;27;45432;-70
2024/01/18 09:57:25;;;;;;;;;0.00;0.00;;;;;22.87;32.98;98802.59;5119663;27;45454;-70
2024/01/18 09:59:56;;;;;;;;;0.00;0.00;;;;;22.63;33.67;98800.19;5119828;27;46258;-70
2024/01/18 10:02:22;;;;;;;;;0.00;0.00;;;;;22.49;33.46;98799.13;5116939;27;45464;-70
2024/01/18 10:04:49;;;;;;;;;0.00;0.00;;;;;22.44;33.79;98784.22;5119467;27;45313;-70
2024/01/18 10:07:15;;;;;;;;;0.00;0.00;;;;;22.85;33.41;98807.16;5119638;27;46403;-69
2024/01/18 10:09:41;;;;;;;;;0.00;0.00;;;;;23.02;32.62;98806.38;5120162;27;45331;-69
2024/01/18 10:12:06;;;;;;;;;0.00;0.00;;;;;23.21;32.50;98814.31;5120292;27;45385;-70
2024/01/18 10:14:50;;;;;;;;;0.00;0.00;;;;;23.07;32.61;98822.13;5120895;27;45524;-70
2024/01/18 10:17:22;;;;;;;;;0.00;0.00;;;;;23.01;33.27;98824.09;5120284;27;45363;-70
2024/01/18 10:19:58;;;;;;;;;0.00;0.00;;;;;23.06;32.91;98815.06;5119016;27;46592;-71
2024/01/18 10:22:24;;;;;;;;;0.00;0.00;;;;;23.20;33.11;98826.78;5114153;27;45416;-72
2024/01/18 10:24:52;;;;;;;;;0.00;0.00;;;;;23.04;32.93;98825.81;5119151;27;45553;-72
2024/01/18 10:27:19;;;;;;;;;0.00;0.00;;;;;22.99;33.21;98818.00;5117913;27;46144;-72
2024/01/18 10:29:49;;;;;;;;;0.00;0.00;;;;;23.13;33.46;98854.63;5115000;27;45507;-71
2024/01/18 10:32:16;;;;;;;;;0.00;0.00;;;;;22.73;33.45;98835.22;5118793;27;45526;-71
2024/01/18 10:34:42;;;;;;;;;0.00;0.00;;;;;22.72;33.50;98833.50;5118686;27;45483;-71
2024/01/18 10:37:16;;;;;;;;;0.00;0.00;;;;;22.75;33.51;98846.66;5117884;27;46144;-72
2024/01/18 10:39:45;;;;;;;;;0.00;0.00;;;;;22.78;33.96;98846.53;5118676;27;45777;-72
2024/01/18 10:42:12;;;;;;;;;0.00;0.00;;;;;22.82;33.21;98847.25;5118293;27;46235;-70
2024/01/18 10:44:43;;;;;;;;;1.00;0.00;;;;;22.79;33.58;98858.88;5118536;27;45405;-70
2024/01/18 10:47:13;;;;;;;;;0.00;0.00;;;;;22.91;33.36;98849.44;5118198;27;46252;-71
2024/01/18 10:49:43;;;;;;;;;0.00;0.00;;;;;22.96;33.27;98833.25;5118149;27;45391;-71
2024/01/18 10:52:10;;;;;;;;;0.00;0.00;;;;;22.98;33.69;98842.91;5117981;27;45300;-71
2024/01/18 10:54:37;;;;;;;;;0.00;0.00;;;;;23.25;33.16;98869.16;5119054;27;45652;-71
2024/01/18 10:57:03;;;;;;;;;0.00;0.00;;;;;23.26;32.35;98872.69;5117819;27;46248;-71
2024/01/18 10:59:30;;;;;;;;;0.00;0.00;;;;;23.38;32.72;98866.78;5118045;27;45439;-70
2024/01/18 11:02:00;;;;;;;;;0.00;0.00;;;;;23.40;32.35;98875.56;5118183;27;45571;-71
2024/01/18 11:04:33;;;;;;;;;0.00;0.00;;;;;23.51;32.94;98881.19;5115621;27;45327;-71
2024/01/18 11:06:59;;;;;;;;;0.00;0.00;;;;;23.42;32.77;98857.69;5117697;27;45359;-71
2024/01/18 11:09:27;;;;;;;;;1.00;0.00;;;;;23.32;32.97;98832.44;5117471;27;45511;-72
2024/01/18 11:11:54;;;;;;;;;0.00;0.00;;;;;23.69;33.18;98862.56;5117717;27;45570;-72
2024/01/18 11:14:20;;;;;;;;;0.00;0.00;;;;;23.95;31.95;98888.78;5117898;27;45803;-71
2024/01/18 11:16:46;;;;;;;;;1.33;0.00;;;;;24.22;32.50;98894.50;5117282;27;45492;-72
2024/01/18 11:19:12;;;;;;;;;0.00;0.00;;;;;24.44;32.05;98887.16;5117466;27;45458;-76
2024/01/18 11:21:42;;;;;;;;;0.33;0.33;;;;;24.47;31.78;98869.19;5119000;27;45419;-71
2024/01/18 11:24:08;;;;;;;;;0.00;0.00;;;;;24.66;31.68;98874.41;5118682;27;45785;-72
2024/01/18 11:26:34;;;;;;;;;1.00;1.00;;;;;24.75;30.87;98892.59;5118241;27;45479;-73
2024/01/18 11:29:17;;;;;;;;;0.00;0.00;;;;;24.94;31.43;98889.75;5118262;27;45516;-77